Time,TemperatureF,DewpointF,PressureIn,WindDirection,WindDirectionDegrees,WindSpeedMPH,WindSpeedGustMPH,Humidity,HourlyPrecipIn,Conditions,Clouds,dailyrainin,SoftwareType,DateUTC
2013-02-18 00:00:00,19.1,0.9,29.64,North,0,0.0,15.0,54,-99.99,,,-99.99,PWS SA v1.10,2013-02-18 05:00:00,
2013-02-18 00:05:00,19.5,1.7,29.63,NE,56,1.7,15.0,55,-99.99,,,-99.99,PWS SA v1.10,2013-02-18 05:05:00,
2013-02-18 00:10:00,18.7,0.8,29.64,NW,312,10.2,10.2,54,-99.99,,,-99.99,PWS SA v1.10,2013-02-18 05:10:00,
2013-02-18 00:15:00,19.0,1.1,29.64,NW,319,3.4,10.0,54,-99.99,,,-99.99,PWS SA v1.10,2013-02-18 05:15:00,
2013-02-18 00:20:00,19.1,1.7,29.65,West,260,8.5,10.0,56,-99.99,,,-99.99,PWS SA v1.10,2013-02-18 05:20:00,
2013-02-18 00:25:00,19.1,1.7,29.64,NW,316,3.4,8.0,56,-99.99,,,-99.99,PWS SA v1.10,2013-02-18 05:25:00,
2013-02-18 00:30:00,18.9,1.3,29.65,West,262,3.4,12.0,55,-99.99,,,-99.99,PWS SA v1.10,2013-02-18 05:30:00,
2013-02-18 00:35:00,18.6,1.2,29.64,NNW,336,6.8,12.0,56,-99.99,,,-99.99,PWS SA v1.10,2013-02-18 05:35:00,
2013-02-18 00:40:00,18.6,1.1,29.65,NW,317,1.7,12.0,55,-99.99,,,-99.99,PWS SA v1.10,2013-02-18 05:40:00,
2013-02-18 00:45:00,18.4,0.9,29.64,West,280,6.8,10.0,55,-99.99,,,-99.99,PWS SA v1.10,2013-02-18 05:45:00,
2013-02-18 00:50:00,18.2,-0.4,29.65,NNE,26,13.7,13.7,53,-99.99,,,-99.99,PWS SA v1.10,2013-02-18 05:50:00,
2013-02-18 00:55:00,18.3,0.3,29.65,SSW,196,5.1,13.0,54,-99.99,,,-99.99,PWS SA v1.10,2013-02-18 05:55:00,
2013-02-18 01:00:00,18.1,-0.4,29.65,West,260,25.6,25.6,53,-99.99,,,-99.99,PWS SA v1.10,2013-02-18 06:00:00,
2013-02-18 01:05:00,18.3,0.7,29.65,North,11,6.8,25.0,55,-99.99,,,-99.99,PWS SA v1.10,2013-02-18 06:05:00,
2013-02-18 01:15:00,18.0,0.1,29.66,NNW,333,5.1,10.0,54,-99.99,,,-99.99,PWS SA v1.10,2013-02-18 06:15:00,
2013-02-18 01:20:00,18.4,1.0,29.66,NW,312,3.4,10.0,56,-99.99,,,-99.99,PWS SA v1.10,2013-02-18 06:20:00,
2013-02-18 01:25:00,17.8,-0.1,29.66,SW,226,3.4,11.0,54,-99.99,,,-99.99,PWS SA v1.10,2013-02-18 06:25:00,
2013-02-18 01:35:00,18.1,0.6,29.66,WSW,252,5.1,11.0,55,-99.99,,,-99.99,PWS SA v1.10,2013-02-18 06:35:00,
2013-02-18 01:40:00,18.1,1.0,29.66,NW,309,5.1,22.0,56,-99.99,,,-99.99,PWS SA v1.10,2013-02-18 06:40:00,
2013-02-18 01:45:00,18.1,0.7,29.67,SW,220,3.4,22.0,56,-99.99,,,-99.99,PWS SA v1.10,2013-02-18 06:45:00,
2013-02-18 01:55:00,18.1,1.0,29.67,North,361,8.5,12.0,56,-99.99,,,-99.99,PWS SA v1.10,2013-02-18 06:55:00,
2013-02-18 02:00:00,17.9,0.8,29.67,West,281,5.1,12.0,56,-99.99,,,-99.99,PWS SA v1.10,2013-02-18 07:00:00,
2013-02-18 02:05:00,18.1,0.1,29.67,North,0,0.0,20.0,54,-99.99,,,-99.99,PWS SA v1.10,2013-02-18 07:05:00,
2013-02-18 02:10:00,17.8,0.6,29.68,NW,309,3.4,20.0,56,-99.99,,,-99.99,PWS SA v1.10,2013-02-18 07:10:00,
2013-02-18 02:15:00,17.7,0.7,29.68,NNW,330,3.4,20.0,56,-99.99,,,-99.99,PWS SA v1.10,2013-02-18 07:15:00,
2013-02-18 02:20:00,17.8,0.8,29.68,NW,310,12.0,17.0,56,-99.99,,,-99.99,PWS SA v1.10,2013-02-18 07:20:00,
2013-02-18 02:25:00,18.0,0.1,29.69,NW,325,5.1,12.0,54,-99.99,,,-99.99,PWS SA v1.10,2013-02-18 07:25:00,
2013-02-18 02:30:00,17.8,0.4,29.69,NNW,346,17.1,17.1,56,-99.99,,,-99.99,PWS SA v1.10,2013-02-18 07:30:00,
2013-02-18 02:35:00,17.7,0.2,29.69,West,267,3.4,17.0,55,-99.99,,,-99.99,PWS SA v1.10,2013-02-18 07:35:00,
2013-02-18 02:40:00,17.6,0.3,29.69,West,281,3.4,17.0,56,-99.99,,,-99.99,PWS SA v1.10,2013-02-18 07:40:00,
2013-02-18 02:45:00,17.3,-0.7,29.69,WNW,299,3.4,12.0,54,-99.99,,,-99.99,PWS SA v1.10,2013-02-18 07:45:00,
2013-02-18 02:50:00,17.7,0.8,29.70,NNW,337,13.7,13.7,57,-99.99,,,-99.99,PWS SA v1.10,2013-02-18 07:50:00,
2013-02-18 02:55:00,17.6,0.6,29.70,North,360,11.9,13.0,57,-99.99,,,-99.99,PWS SA v1.10,2013-02-18 07:55:00,
2013-02-18 03:00:00,17.2,-0.3,29.71,WSW,241,5.1,13.0,55,-99.99,,,-99.99,PWS SA v1.10,2013-02-18 08:00:00,
2013-02-18 03:05:00,17.3,-0.4,29.71,NW,314,3.4,11.0,55,-99.99,,,-99.99,PWS SA v1.10,2013-02-18 08:05:00,
2013-02-18 03:10:00,17.6,0.3,29.71,NE,56,5.1,10.0,56,-99.99,,,-99.99,PWS SA v1.10,2013-02-18 08:10:00,
2013-02-18 03:15:00,17.7,-0.2,29.71,North,0,0.0,18.0,54,-99.99,,,-99.99,PWS SA v1.10,2013-02-18 08:15:00,
2013-02-18 03:20:00,17.5,0.2,29.72,North,0,0.0,18.0,56,-99.99,,,-99.99,PWS SA v1.10,2013-02-18 08:20:00,
2013-02-18 03:25:00,17.3,0.1,29.72,West,281,3.4,18.0,56,-99.99,,,-99.99,PWS SA v1.10,2013-02-18 08:25:00,
2013-02-18 03:30:00,17.1,0.7,29.72,West,265,5.1,5.1,58,-99.99,,,-99.99,PWS SA v1.10,2013-02-18 08:30:00,
2013-02-18 03:35:00,17.3,0.1,29.72,North,9,13.7,13.7,56,-99.99,,,-99.99,PWS SA v1.10,2013-02-18 08:35:00,
2013-02-18 03:40:00,16.8,-0.9,29.72,WNW,291,1.7,13.0,55,-99.99,,,-99.99,PWS SA v1.10,2013-02-18 08:40:00,
2013-02-18 03:45:00,17.2,0.6,29.73,West,265,3.4,13.0,57,-99.99,,,-99.99,PWS SA v1.10,2013-02-18 08:45:00,
2013-02-18 03:50:00,17.7,0.7,29.73,West,278,1.7,5.0,57,-99.99,,,-99.99,PWS SA v1.10,2013-02-18 08:50:00,
2013-02-18 03:55:00,17.1,0.8,29.74,NW,306,13.7,13.7,58,-99.99,,,-99.99,PWS SA v1.10,2013-02-18 08:55:00,
2013-02-18 04:00:00,17.4,1.1,29.74,NW,312,1.7,13.0,58,-99.99,,,-99.99,PWS SA v1.10,2013-02-18 09:00:00,
2013-02-18 04:05:00,17.1,-0.5,29.74,NW,318,3.4,13.0,55,-99.99,,,-99.99,PWS SA v1.10,2013-02-18 09:05:00,
2013-02-18 04:10:00,17.5,0.9,29.74,North,0,0.0,6.0,58,-99.99,,,-99.99,PWS SA v1.10,2013-02-18 09:10:00,
2013-02-18 04:15:00,17.1,0.0,29.74,NNW,328,6.8,6.8,56,-99.99,,,-99.99,PWS SA v1.10,2013-02-18 09:15:00,
2013-02-18 04:20:00,16.8,-0.8,29.75,North,0,0.0,8.0,55,-99.99,,,-99.99,PWS SA v1.10,2013-02-18 09:20:00,
2013-02-18 04:25:00,17.1,-0.2,29.75,NNW,333,3.4,8.0,56,-99.99,,,-99.99,PWS SA v1.10,2013-02-18 09:25:00,
2013-02-18 04:30:00,17.2,0.2,29.76,NNW,329,3.4,8.0,57,-99.99,,,-99.99,PWS SA v1.10,2013-02-18 09:30:00,
2013-02-18 04:35:00,16.6,-0.8,29.76,West,276,8.5,8.5,55,-99.99,,,-99.99,PWS SA v1.10,2013-02-18 09:35:00,
2013-02-18 04:40:00,16.9,-0.4,29.77,West,260,3.4,8.0,56,-99.99,,,-99.99,PWS SA v1.10,2013-02-18 09:40:00,
2013-02-18 04:45:00,17.0,-0.1,29.77,North,355,3.4,8.0,56,-99.99,,,-99.99,PWS SA v1.10,2013-02-18 09:45:00,
2013-02-18 04:50:00,17.3,0.0,29.77,West,278,1.7,10.0,56,-99.99,,,-99.99,PWS SA v1.10,2013-02-18 09:50:00,
2013-02-18 04:55:00,16.8,-1.1,29.77,NW,317,5.1,10.0,54,-99.99,,,-99.99,PWS SA v1.10,2013-02-18 09:55:00,
2013-02-18 05:00:00,16.7,-0.8,29.77,West,267,8.5,10.0,55,-99.99,,,-99.99,PWS SA v1.10,2013-02-18 10:00:00,
2013-02-18 05:05:00,16.8,-0.5,29.78,NW,306,1.7,8.0,56,-99.99,,,-99.99,PWS SA v1.10,2013-02-18 10:05:00,
2013-02-18 05:10:00,17.1,-0.2,29.78,NNW,336,5.1,8.0,56,-99.99,,,-99.99,PWS SA v1.10,2013-02-18 10:10:00,
2013-02-18 05:15:00,17.4,0.8,29.78,NW,322,5.1,8.0,58,-99.99,,,-99.99,PWS SA v1.10,2013-02-18 10:15:00,
2013-02-18 05:25:00,16.5,-0.7,29.78,North,9,13.7,13.7,56,-99.99,,,-99.99,PWS SA v1.10,2013-02-18 10:25:00,
2013-02-18 05:30:00,16.8,0.1,29.79,WSW,255,3.4,13.0,57,-99.99,,,-99.99,PWS SA v1.10,2013-02-18 10:30:00,
2013-02-18 05:35:00,16.9,0.3,29.80,WNW,299,5.1,13.0,57,-99.99,,,-99.99,PWS SA v1.10,2013-02-18 10:35:00,
2013-02-18 05:45:00,16.3,-0.8,29.81,NNW,341,3.4,18.0,56,-99.99,,,-99.99,PWS SA v1.10,2013-02-18 10:45:00,
2013-02-18 05:50:00,16.6,-1.0,29.80,North,0,0.0,18.0,55,-99.99,,,-99.99,PWS SA v1.10,2013-02-18 10:50:00,
2013-02-18 05:55:00,16.6,-0.4,29.81,WNW,288,1.7,13.0,56,-99.99,,,-99.99,PWS SA v1.10,2013-02-18 10:55:00,
2013-02-18 06:00:00,16.6,-0.4,29.81,North,0,0.0,13.0,56,-99.99,,,-99.99,PWS SA v1.10,2013-02-18 11:00:00,
2013-02-18 06:05:00,16.6,0.1,29.81,West,278,1.7,18.0,58,-99.99,,,-99.99,PWS SA v1.10,2013-02-18 11:05:00,
2013-02-18 06:15:00,16.4,-0.8,29.82,North,357,8.5,18.0,56,-99.99,,,-99.99,PWS SA v1.10,2013-02-18 11:15:00,
2013-02-18 06:20:00,16.6,0.3,29.82,NW,320,1.7,8.0,58,-99.99,,,-99.99,PWS SA v1.10,2013-02-18 11:20:00,
2013-02-18 06:25:00,16.9,0.6,29.83,NW,320,3.4,8.0,58,-99.99,,,-99.99,PWS SA v1.10,2013-02-18 11:25:00,
2013-02-18 06:30:00,16.6,-0.4,29.84,North,0,0.0,8.0,56,-99.99,,,-99.99,PWS SA v1.10,2013-02-18 11:30:00,
2013-02-18 06:35:00,16.3,-0.8,29.84,WNW,288,3.4,12.0,56,-99.99,,,-99.99,PWS SA v1.10,2013-02-18 11:35:00,
2013-02-18 06:45:00,16.8,0.1,29.84,NNW,343,10.2,12.0,57,-99.99,,,-99.99,PWS SA v1.10,2013-02-18 11:45:00,
2013-02-18 06:50:00,16.4,-0.8,29.85,North,0,0.0,10.0,56,-99.99,,,-99.99,PWS SA v1.10,2013-02-18 11:50:00,
2013-02-18 06:55:00,16.3,-1.1,29.85,North,0,0.0,12.0,55,-99.99,,,-99.99,PWS SA v1.10,2013-02-18 11:55:00,
2013-02-18 07:00:00,16.3,-0.2,29.85,WNW,298,1.7,15.0,58,-99.99,,,-99.99,PWS SA v1.10,2013-02-18 12:00:00,
2013-02-18 07:15:00,15.9,-1.4,29.86,West,280,8.5,12.0,56,-99.99,,,-99.99,PWS SA v1.10,2013-02-18 12:15:00,
2013-02-18 07:20:00,16.8,0.3,29.87,WNW,293,5.1,12.0,58,-99.99,,,-99.99,PWS SA v1.10,2013-02-18 12:20:00,
2013-02-18 07:25:00,16.9,-0.1,29.87,West,274,1.7,10.0,56,-99.99,,,-99.99,PWS SA v1.10,2013-02-18 12:25:00,
2013-02-18 07:30:00,17.2,0.3,29.87,West,266,3.4,6.0,57,-99.99,,,-99.99,PWS SA v1.10,2013-02-18 12:30:00,
2013-02-18 07:35:00,16.9,-0.1,29.88,WNW,283,6.8,8.0,56,-99.99,,,-99.99,PWS SA v1.10,2013-02-18 12:35:00,
2013-02-18 07:40:00,16.9,0.0,29.87,NNW,341,5.1,10.0,57,-99.99,,,-99.99,PWS SA v1.10,2013-02-18 12:40:00,
2013-02-18 07:50:00,17.1,-0.3,29.88,WNW,297,1.7,10.0,55,-99.99,,,-99.99,PWS SA v1.10,2013-02-18 12:50:00,
2013-02-18 08:00:00,17.3,-0.4,29.88,NW,322,8.5,8.5,55,-99.99,,,-99.99,PWS SA v1.10,2013-02-18 13:00:00,
2013-02-18 08:05:00,17.8,0.1,29.87,West,264,5.1,11.0,55,-99.99,,,-99.99,PWS SA v1.10,2013-02-18 13:05:00,
2013-02-18 08:10:00,17.8,0.0,29.88,WNW,299,11.9,11.9,55,-99.99,,,-99.99,PWS SA v1.10,2013-02-18 13:10:00,
2013-02-18 08:20:00,18.4,-0.2,29.89,NNW,327,5.1,12.0,52,-99.99,,,-99.99,PWS SA v1.10,2013-02-18 13:20:00,
2013-02-18 08:25:00,18.6,-0.5,29.89,NNW,327,11.9,17.0,52,-99.99,,,-99.99,PWS SA v1.10,2013-02-18 13:25:00,
2013-02-18 08:35:00,19.2,-0.2,29.89,North,351,13.7,17.0,51,-99.99,,,-99.99,PWS SA v1.10,2013-02-18 13:35:00,
2013-02-18 08:45:00,19.6,0.9,29.89,WNW,293,6.8,13.0,53,-99.99,,,-99.99,PWS SA v1.10,2013-02-18 13:45:00,
2013-02-18 09:00:00,19.8,-0.4,29.90,NNE,25,6.8,10.0,49,-99.99,,,-99.99,PWS SA v1.10,2013-02-18 14:00:00,
2013-02-18 09:10:00,20.4,0.7,29.91,West,277,12.0,12.0,50,-99.99,,,-99.99,PWS SA v1.10,2013-02-18 14:10:00,
2013-02-18 09:15:00,20.8,0.3,29.91,NW,314,1.7,12.0,49,-99.99,,,-99.99,PWS SA v1.10,2013-02-18 14:15:00,
2013-02-18 09:20:00,20.4,-0.4,29.91,NNW,332,13.5,13.5,48,-99.99,,,-99.99,PWS SA v1.10,2013-02-18 14:20:00,
2013-02-18 09:25:00,21.1,1.0,29.90,WSW,248,1.7,13.0,49,-99.99,,,-99.99,PWS SA v1.10,2013-02-18 14:25:00,
2013-02-18 09:30:00,21.5,1.4,29.91,SW,233,3.4,13.0,49,-99.99,,,-99.99,PWS SA v1.10,2013-02-18 14:30:00,
2013-02-18 09:35:00,21.9,0.9,29.91,NNW,331,6.8,11.0,48,-99.99,,,-99.99,PWS SA v1.10,2013-02-18 14:35:00,
2013-02-18 09:40:00,22.1,0.9,29.92,NNW,347,11.9,11.9,47,-99.99,,,-99.99,PWS SA v1.10,2013-02-18 14:40:00,
2013-02-18 09:50:00,22.7,0.8,29.91,West,263,5.1,11.0,46,-99.99,,,-99.99,PWS SA v1.10,2013-02-18 14:50:00,
2013-02-18 10:00:00,23.5,2.2,29.92,WNW,288,13.7,13.7,47,-99.99,,,-99.99,PWS SA v1.10,2013-02-18 15:00:00,
2013-02-18 10:05:00,23.8,1.2,29.92,West,268,1.7,17.0,45,-99.99,,,-99.99,PWS SA v1.10,2013-02-18 15:05:00,
2013-02-18 10:15:00,24.6,1.1,29.92,NNE,12,5.1,17.0,43,-99.99,,,-99.99,PWS SA v1.10,2013-02-18 15:15:00,
2013-02-18 10:20:00,24.0,-0.2,29.91,NNW,340,5.1,12.0,41,-99.99,,,-99.99,PWS SA v1.10,2013-02-18 15:20:00,
2013-02-18 10:25:00,24.9,1.7,29.92,NNW,327,5.1,12.0,43,-99.99,,,-99.99,PWS SA v1.10,2013-02-18 15:25:00,
2013-02-18 10:35:00,25.9,1.9,29.92,NNW,338,3.4,10.0,42,-99.99,,,-99.99,PWS SA v1.10,2013-02-18 15:35:00,
2013-02-18 10:40:00,25.9,1.3,29.92,NNW,339,6.8,15.0,41,-99.99,,,-99.99,PWS SA v1.10,2013-02-18 15:40:00,
2013-02-18 10:45:00,26.8,1.3,29.92,North,0,0.0,15.0,39,-99.99,,,-99.99,PWS SA v1.10,2013-02-18 15:45:00,
2013-02-18 10:50:00,27.1,7.2,29.92,WNW,302,3.4,15.0,41,-99.99,,,-99.99,PWS SA v1.10,2013-02-18 15:50:00,
2013-02-18 10:55:00,26.8,1.3,29.92,NNW,343,13.7,13.7,39,-99.99,,,-99.99,PWS SA v1.10,2013-02-18 15:55:00,
2013-02-18 11:00:00,27.7,7.1,29.92,SW,226,6.8,13.0,41,-99.99,,,-99.99,PWS SA v1.10,2013-02-18 16:00:00,
2013-02-18 11:05:00,27.1,0.8,29.92,WNW,294,1.7,15.0,38,-99.99,,,-99.99,PWS SA v1.10,2013-02-18 16:05:00,
2013-02-18 11:10:00,27.4,4.8,29.91,North,0,0.0,15.0,37,-99.99,,,-99.99,PWS SA v1.10,2013-02-18 16:10:00,
2013-02-18 11:15:00,27.3,5.1,29.92,West,266,12.0,20.0,38,-99.99,,,-99.99,PWS SA v1.10,2013-02-18 16:15:00,
2013-02-18 11:25:00,27.2,0.5,29.92,WNW,298,8.5,20.0,37,-99.99,,,-99.99,PWS SA v1.10,2013-02-18 16:25:00,
2013-02-18 11:35:00,28.0,6.3,29.93,WSW,248,11.9,18.0,38,-99.99,,,-99.99,PWS SA v1.10,2013-02-18 16:35:00,
2013-02-18 11:40:00,29.0,5.4,29.93,West,277,3.4,12.0,36,-99.99,,,-99.99,PWS SA v1.10,2013-02-18 16:40:00,
2013-02-18 11:45:00,29.5,6.8,29.93,NW,316,1.7,12.0,37,-99.99,,,-99.99,PWS SA v1.10,2013-02-18 16:45:00,
2013-02-18 11:50:00,28.7,5.1,29.93,NNW,347,13.7,13.7,36,-99.99,,,-99.99,PWS SA v1.10,2013-02-18 16:50:00,
2013-02-18 12:00:00,29.1,6.5,29.93,WNW,301,5.1,13.0,37,-99.99,,,-99.99,PWS SA v1.10,2013-02-18 17:00:00,
2013-02-18 12:15:00,30.2,4.6,29.93,ENE,71,10.2,10.2,33,-99.99,,,-99.99,PWS SA v1.10,2013-02-18 17:15:00,
2013-02-18 12:25:00,30.9,5.4,29.94,NW,304,3.4,10.0,33,-99.99,,,-99.99,PWS SA v1.10,2013-02-18 17:25:00,
2013-02-18 12:30:00,30.7,6.7,29.94,WSW,247,18.8,18.8,35,-99.99,,,-99.99,PWS SA v1.10,2013-02-18 17:30:00,
2013-02-18 12:35:00,30.5,6.3,29.93,West,271,1.7,18.0,35,-99.99,,,-99.99,PWS SA v1.10,2013-02-18 17:35:00,
2013-02-18 12:40:00,30.1,4.8,29.95,West,272,13.7,18.0,33,-99.99,,,-99.99,PWS SA v1.10,2013-02-18 17:40:00,
2013-02-18 12:50:00,30.7,3.5,29.94,North,0,0.0,13.0,31,-99.99,,,-99.99,PWS SA v1.10,2013-02-18 17:50:00,
2013-02-18 12:55:00,30.9,3.7,29.93,North,359,17.1,17.1,30,-99.99,,,-99.99,PWS SA v1.10,2013-02-18 17:55:00,
2013-02-18 13:00:00,31.4,5.5,29.93,WNW,290,6.8,17.0,32,-99.99,,,-99.99,PWS SA v1.10,2013-02-18 18:00:00,
2013-02-18 13:10:00,31.9,5.5,29.94,NNW,348,6.8,10.0,32,-99.99,,,-99.99,PWS SA v1.10,2013-02-18 18:10:00,
2013-02-18 13:15:00,31.8,6.9,29.94,NW,308,3.4,10.0,34,-99.99,,,-99.99,PWS SA v1.10,2013-02-18 18:15:00,
2013-02-18 13:25:00,33.0,6.0,29.94,North,0,0.0,10.0,31,-99.99,,,-99.99,PWS SA v1.10,2013-02-18 18:25:00,
2013-02-18 13:35:00,34.5,7.4,29.94,WNW,291,6.8,12.0,31,-99.99,,,-99.99,PWS SA v1.10,2013-02-18 18:35:00,
2013-02-18 13:45:00,33.5,4.9,29.94,WSW,244,3.4,12.0,29,-99.99,,,-99.99,PWS SA v1.10,2013-02-18 18:45:00,
2013-02-18 13:50:00,33.5,6.9,29.95,NW,319,13.7,13.7,31,-99.99,,,-99.99,PWS SA v1.10,2013-02-18 18:50:00,
2013-02-18 14:00:00,35.8,5.5,29.95,NW,324,6.8,13.0,27,-99.99,,,-99.99,PWS SA v1.10,2013-02-18 19:00:00,
2013-02-18 14:10:00,35.4,6.0,29.95,SW,214,1.7,12.0,28,-99.99,,,-99.99,PWS SA v1.10,2013-02-18 19:10:00,
2013-02-18 14:25:00,37.0,5.8,29.95,WNW,294,6.8,13.0,26,-99.99,,,-99.99,PWS SA v1.10,2013-02-18 19:25:00,
2013-02-18 14:35:00,37.3,6.8,29.96,NNW,338,5.1,10.0,27,-99.99,,,-99.99,PWS SA v1.10,2013-02-18 19:35:00,
2013-02-18 14:40:00,36.7,6.7,29.96,NNW,334,10.2,12.0,27,-99.99,,,-99.99,PWS SA v1.10,2013-02-18 19:40:00,
2013-02-18 14:45:00,36.5,7.2,29.95,NW,325,5.1,12.0,28,-99.99,,,-99.99,PWS SA v1.10,2013-02-18 19:45:00,
2013-02-18 14:50:00,37.6,7.3,29.96,WNW,303,3.4,13.0,27,-99.99,,,-99.99,PWS SA v1.10,2013-02-18 19:50:00,
2013-02-18 15:00:00,38.0,7.8,29.96,West,267,5.1,13.0,27,-99.99,,,-99.99,PWS SA v1.10,2013-02-18 20:00:00,
2013-02-18 15:05:00,36.7,5.1,29.96,NNW,335,10.2,13.0,26,-99.99,,,-99.99,PWS SA v1.10,2013-02-18 20:05:00,
2013-02-18 15:15:00,36.5,5.2,29.96,WNW,283,8.5,10.0,26,-99.99,,,-99.99,PWS SA v1.10,2013-02-18 20:15:00,
2013-02-18 15:20:00,37.1,7.3,29.96,SW,233,10.2,10.2,28,-99.99,,,-99.99,PWS SA v1.10,2013-02-18 20:20:00,
2013-02-18 15:25:00,36.7,8.9,29.96,SW,224,6.8,10.0,30,-99.99,,,-99.99,PWS SA v1.10,2013-02-18 20:25:00,
2013-02-18 15:30:00,36.9,9.3,29.96,WNW,287,3.4,10.0,31,-99.99,,,-99.99,PWS SA v1.10,2013-02-18 20:30:00,
2013-02-18 15:35:00,36.7,7.4,29.96,NE,36,3.4,8.0,28,-99.99,,,-99.99,PWS SA v1.10,2013-02-18 20:35:00,
2013-02-18 15:40:00,37.2,9.3,29.97,WNW,296,1.7,8.0,31,-99.99,,,-99.99,PWS SA v1.10,2013-02-18 20:40:00,
2013-02-18 15:45:00,37.0,7.5,29.97,West,270,5.1,8.0,29,-99.99,,,-99.99,PWS SA v1.10,2013-02-18 20:45:00,
2013-02-18 15:55:00,35.5,7.8,29.97,WNW,283,1.7,13.0,30,-99.99,,,-99.99,PWS SA v1.10,2013-02-18 20:55:00,
2013-02-18 16:00:00,35.7,6.4,29.97,West,273,6.8,13.0,28,-99.99,,,-99.99,PWS SA v1.10,2013-02-18 21:00:00,
2013-02-18 16:15:00,33.5,6.5,29.98,North,354,1.7,11.0,31,-99.99,,,-99.99,PWS SA v1.10,2013-02-18 21:15:00,
2013-02-18 16:20:00,32.9,5.9,29.98,North,0,0.0,10.0,31,-99.99,,,-99.99,PWS SA v1.10,2013-02-18 21:20:00,
2013-02-18 16:25:00,33.1,5.9,29.99,NNW,330,3.4,5.0,31,-99.99,,,-99.99,PWS SA v1.10,2013-02-18 21:25:00,
2013-02-18 16:35:00,31.8,5.2,29.99,WSW,241,3.4,12.0,31,-99.99,,,-99.99,PWS SA v1.10,2013-02-18 21:35:00,
2013-02-18 16:40:00,31.6,6.5,29.99,NNE,33,5.1,12.0,34,-99.99,,,-99.99,PWS SA v1.10,2013-02-18 21:40:00,
2013-02-18 16:45:00,31.1,5.3,30.00,North,0,0.0,8.0,33,-99.99,,,-99.99,PWS SA v1.10,2013-02-18 21:45:00,
2013-02-18 16:50:00,30.6,4.1,30.00,NW,309,10.2,10.2,32,-99.99,,,-99.99,PWS SA v1.10,2013-02-18 21:50:00,
2013-02-18 16:55:00,30.5,3.5,30.00,North,0,0.0,10.0,31,-99.99,,,-99.99,PWS SA v1.10,2013-02-18 21:55:00,
2013-02-18 17:00:00,30.3,4.3,29.99,WNW,303,10.2,10.2,32,-99.99,,,-99.99,PWS SA v1.10,2013-02-18 22:00:00,
2013-02-18 17:10:00,30.5,6.2,30.00,WNW,298,3.4,10.0,35,-99.99,,,-99.99,PWS SA v1.10,2013-02-18 22:10:00,
2013-02-18 17:15:00,30.4,6.8,30.00,NW,309,3.4,8.0,36,-99.99,,,-99.99,PWS SA v1.10,2013-02-18 22:15:00,
2013-02-18 17:20:00,30.7,5.9,30.00,WNW,293,3.4,8.0,34,-99.99,,,-99.99,PWS SA v1.10,2013-02-18 22:20:00,
2013-02-18 17:25:00,30.3,3.7,30.01,North,0,0.0,6.0,32,-99.99,,,-99.99,PWS SA v1.10,2013-02-18 22:25:00,
2013-02-18 17:35:00,30.4,8.5,30.02,WSW,238,3.4,5.0,39,-99.99,,,-99.99,PWS SA v1.10,2013-02-18 22:35:00,
2013-02-18 17:40:00,30.6,8.3,30.02,North,0,0.0,3.0,39,-99.99,,,-99.99,PWS SA v1.10,2013-02-18 22:40:00,
2013-02-18 17:50:00,29.8,7.7,30.02,SW,226,1.7,5.0,39,-99.99,,,-99.99,PWS SA v1.10,2013-02-18 22:50:00,
2013-02-18 17:55:00,29.4,7.8,30.02,WSW,253,3.4,5.0,39,-99.99,,,-99.99,PWS SA v1.10,2013-02-18 22:55:00,
2013-02-18 18:00:00,30.0,7.3,30.02,North,0,0.0,3.0,38,-99.99,,,-99.99,PWS SA v1.10,2013-02-18 23:00:00,
2013-02-18 18:10:00,29.0,6.1,30.03,West,268,12.0,12.0,37,-99.99,,,-99.99,PWS SA v1.10,2013-02-18 23:10:00,
2013-02-18 18:20:00,29.3,8.9,30.04,West,265,3.4,12.0,42,-99.99,,,-99.99,PWS SA v1.10,2013-02-18 23:20:00,
2013-02-18 18:25:00,28.7,7.3,30.04,North,0,0.0,5.0,40,-99.99,,,-99.99,PWS SA v1.10,2013-02-18 23:25:00,
2013-02-18 18:30:00,28.6,6.8,30.04,North,0,0.0,5.0,39,-99.99,,,-99.99,PWS SA v1.10,2013-02-18 23:30:00,
2013-02-18 18:40:00,28.4,6.8,30.04,WSW,254,1.7,5.0,39,-99.99,,,-99.99,PWS SA v1.10,2013-02-18 23:40:00,
2013-02-18 18:45:00,28.5,6.9,30.04,North,0,0.0,3.0,39,-99.99,,,-99.99,PWS SA v1.10,2013-02-18 23:45:00,
2013-02-18 18:50:00,28.5,7.3,30.04,North,0,0.0,6.0,40,-99.99,,,-99.99,PWS SA v1.10,2013-02-18 23:50:00,
2013-02-18 18:55:00,28.6,7.1,30.04,West,266,3.4,6.0,39,-99.99,,,-99.99,PWS SA v1.10,2013-02-18 23:55:00,
2013-02-18 19:00:00,28.9,6.6,30.05,WSW,251,3.4,6.0,38,-99.99,,,-99.99,PWS SA v1.10,2013-02-19 00:00:00,
2013-02-18 19:05:00,28.1,5.3,30.04,SW,234,3.4,3.4,37,-99.99,,,-99.99,PWS SA v1.10,2013-02-19 00:05:00,
2013-02-18 19:15:00,28.1,5.2,30.05,NW,304,3.4,5.0,37,-99.99,,,-99.99,PWS SA v1.10,2013-02-19 00:15:00,
2013-02-18 19:25:00,28.5,6.0,30.06,North,0,0.0,3.0,38,-99.99,,,-99.99,PWS SA v1.10,2013-02-19 00:25:00,
2013-02-18 19:30:00,28.1,6.8,30.06,North,0,0.0,3.0,39,-99.99,,,-99.99,PWS SA v1.10,2013-02-19 00:30:00,
2013-02-18 19:40:00,28.1,6.7,30.06,North,0,0.0,3.0,39,-99.99,,,-99.99,PWS SA v1.10,2013-02-19 00:40:00,
2013-02-18 19:45:00,28.1,6.6,30.06,West,270,1.7,3.0,39,-99.99,,,-99.99,PWS SA v1.10,2013-02-19 00:45:00,
2013-02-18 20:00:00,28.0,5.4,30.07,North,0,0.0,3.0,38,-99.99,,,-99.99,PWS SA v1.10,2013-02-19 01:00:00,
2013-02-18 20:05:00,27.9,6.8,30.06,North,0,0.0,3.0,40,-99.99,,,-99.99,PWS SA v1.10,2013-02-19 01:05:00,
2013-02-18 20:10:00,27.7,3.4,30.06,North,0,0.0,5.0,42,-99.99,,,-99.99,PWS SA v1.10,2013-02-19 01:10:00,
2013-02-18 20:15:00,27.6,4.3,30.06,North,0,0.0,5.0,44,-99.99,,,-99.99,PWS SA v1.10,2013-02-19 01:15:00,
2013-02-18 20:20:00,27.1,3.2,30.07,North,0,0.0,5.0,42,-99.99,,,-99.99,PWS SA v1.10,2013-02-19 01:20:00,
2013-02-18 20:30:00,26.8,5.1,30.07,North,0,0.0,1.0,47,-99.99,,,-99.99,PWS SA v1.10,2013-02-19 01:30:00,
2013-02-18 20:35:00,26.5,4.7,30.07,North,0,0.0,1.0,46,-99.99,,,-99.99,PWS SA v1.10,2013-02-19 01:35:00,
2013-02-18 20:40:00,26.5,3.4,30.07,North,0,0.0,3.0,44,-99.99,,,-99.99,PWS SA v1.10,2013-02-19 01:40:00,
2013-02-18 20:45:00,26.4,3.9,30.08,North,0,0.0,3.0,45,-99.99,,,-99.99,PWS SA v1.10,2013-02-19 01:45:00,
2013-02-18 20:55:00,26.4,5.3,30.08,North,0,0.0,5.0,48,-99.99,,,-99.99,PWS SA v1.10,2013-02-19 01:55:00,
2013-02-18 21:00:00,26.3,5.3,30.08,North,0,0.0,5.0,48,-99.99,,,-99.99,PWS SA v1.10,2013-02-19 02:00:00,
2013-02-18 21:10:00,25.8,4.1,30.09,SW,230,10.2,10.2,47,-99.99,,,-99.99,PWS SA v1.10,2013-02-19 02:10:00,
2013-02-18 21:20:00,26.2,5.6,30.08,West,259,1.7,10.0,49,-99.99,,,-99.99,PWS SA v1.10,2013-02-19 02:20:00,
2013-02-18 21:25:00,26.0,4.3,30.08,WNW,283,3.4,3.4,47,-99.99,,,-99.99,PWS SA v1.10,2013-02-19 02:25:00,
2013-02-18 21:30:00,26.0,3.8,30.09,North,0,0.0,3.0,46,-99.99,,,-99.99,PWS SA v1.10,2013-02-19 02:30:00,
2013-02-18 21:35:00,25.9,4.7,30.08,North,0,0.0,6.0,48,-99.99,,,-99.99,PWS SA v1.10,2013-02-19 02:35:00,
2013-02-18 21:45:00,25.6,3.4,30.08,West,274,3.4,6.0,46,-99.99,,,-99.99,PWS SA v1.10,2013-02-19 02:45:00,
2013-02-18 21:55:00,26.0,4.5,30.08,West,273,3.4,5.0,47,-99.99,,,-99.99,PWS SA v1.10,2013-02-19 02:55:00,
2013-02-18 22:00:00,25.8,4.6,30.08,SW,222,1.7,5.0,48,-99.99,,,-99.99,PWS SA v1.10,2013-02-19 03:00:00,
2013-02-18 22:05:00,25.8,3.4,30.08,WSW,252,1.7,5.0,45,-99.99,,,-99.99,PWS SA v1.10,2013-02-19 03:05:00,
2013-02-18 22:15:00,25.6,3.3,30.09,NW,307,3.4,12.0,45,-99.99,,,-99.99,PWS SA v1.10,2013-02-19 03:15:00,
2013-02-18 22:20:00,25.6,4.3,30.09,North,0,0.0,12.0,47,-99.99,,,-99.99,PWS SA v1.10,2013-02-19 03:20:00,
2013-02-18 22:30:00,25.6,4.4,30.10,West,269,5.1,5.1,48,-99.99,,,-99.99,PWS SA v1.10,2013-02-19 03:30:00,
2013-02-18 22:35:00,25.1,2.5,30.10,WSW,247,5.1,5.1,45,-99.99,,,-99.99,PWS SA v1.10,2013-02-19 03:35:00,
2013-02-18 22:45:00,25.5,4.0,30.10,WSW,248,3.4,5.0,47,-99.99,,,-99.99,PWS SA v1.10,2013-02-19 03:45:00,
2013-02-18 22:55:00,25.3,4.4,30.09,SW,226,3.4,6.0,48,-99.99,,,-99.99,PWS SA v1.10,2013-02-19 03:55:00,
2013-02-18 23:10:00,25.3,4.2,30.10,WNW,301,3.4,6.0,48,-99.99,,,-99.99,PWS SA v1.10,2013-02-19 04:10:00,
2013-02-18 23:20:00,25.8,4.2,30.10,West,260,3.4,6.0,47,-99.99,,,-99.99,PWS SA v1.10,2013-02-19 04:20:00,
2013-02-18 23:25:00,25.6,4.0,30.10,WSW,252,6.8,6.8,47,-99.99,,,-99.99,PWS SA v1.10,2013-02-19 04:25:00,
2013-02-18 23:30:00,25.6,3.8,30.10,North,0,0.0,6.0,46,-99.99,,,-99.99,PWS SA v1.10,2013-02-19 04:30:00,
2013-02-18 23:35:00,25.5,5.7,30.10,WSW,245,1.7,6.0,51,-99.99,,,-99.99,PWS SA v1.10,2013-02-19 04:35:00,
2013-02-18 23:40:00,25.6,5.1,30.09,North,0,0.0,5.0,49,-99.99,,,-99.99,PWS SA v1.10,2013-02-19 04:40:00,
2013-02-18 23:50:00,25.5,5.2,30.10,West,279,1.7,5.0,50,-99.99,,,-99.99,PWS SA v1.10,2013-02-19 04:50:00,